Time;durP1;ratioP1;P1;durP2;ratioP2;P2;SDS_P1;SDS_P2;PMS_P1;PMS_P2;Temp;Humidity;BMP_temperature;BMP_pressure;BME280_temperature;BME280_humidity;BME280_pressure;Samples;Min_cycle;Max_cycle;Signal;HPM_P1;HPM_P2
2023/08/16 00:00:54;;;;;;;9.43;8.52;;;;;;;23.74;100.00;98179.78;5030773;28;20173;-58
2023/08/16 00:03:19;;;;;;;11.43;8.75;;;;;;;23.75;100.00;98176.94;5030791;28;20617;-58
2023/08/16 00:05:45;;;;;;;11.13;9.27;;;;;;;23.77;100.00;98178.59;5030640;28;20576;-58
2023/08/16 00:08:11;;;;;;;14.02;9.48;;;;;;;23.59;100.00;98165.06;5030263;28;20204;-58
2023/08/16 00:10:37;;;;;;;10.55;9.52;;;;;;;23.61;100.00;98166.47;5030607;28;20184;-58
2023/08/16 00:13:02;;;;;;;10.45;9.45;;;;;;;23.75;100.00;98176.13;5030561;28;20642;-58
2023/08/16 00:15:28;;;;;;;10.70;8.77;;;;;;;23.55;100.00;98132.91;5030333;28;20183;-58
2023/08/16 00:17:53;;;;;;;8.57;7.78;;;;;;;23.62;100.00;98133.78;5030314;28;20214;-58
2023/08/16 00:20:20;;;;;;;9.13;8.23;;;;;;;23.65;100.00;98140.50;5030562;28;20186;-58
2023/08/16 00:22:46;;;;;;;9.63;8.73;;;;;;;23.78;100.00;98154.59;5030584;28;20177;-58
2023/08/16 00:25:11;;;;;;;14.23;10.00;;;;;;;23.85;100.00;98160.75;5030184;28;20181;-58
2023/08/16 00:27:37;;;;;;;11.57;10.48;;;;;;;23.57;100.00;98130.91;5030884;28;20189;-58
2023/08/16 00:30:04;;;;;;;11.90;9.27;;;;;;;23.67;100.00;98146.41;5034520;28;20174;-58
2023/08/16 00:32:29;;;;;;;10.45;9.30;;;;;;;23.61;100.00;98160.38;5034055;28;20599;-58
2023/08/16 00:34:55;;;;;;;11.05;9.40;;;;;;;23.52;100.00;98143.88;5034401;28;20174;-58
2023/08/16 00:37:20;;;;;;;9.90;8.95;;;;;;;23.60;100.00;98162.19;5034056;28;20214;-58
2023/08/16 00:39:46;;;;;;;12.00;9.48;;;;;;;23.61;100.00;98147.19;5034245;28;20201;-58
2023/08/16 00:42:11;;;;;;;9.77;8.85;;;;;;;23.57;100.00;98145.91;5051437;28;20201;-58
2023/08/16 00:44:37;;;;;;;11.48;9.25;;;;;;;23.46;100.00;98143.81;5051572;28;20264;-58
2023/08/16 00:47:02;;;;;;;10.30;9.20;;;;;;;23.30;100.00;98138.81;5051688;28;20280;-58
2023/08/16 00:49:28;;;;;;;11.48;10.20;;;;;;;23.37;100.00;98147.63;5051505;28;20192;-58
2023/08/16 00:51:54;;;;;;;15.25;10.20;;;;;;;23.34;100.00;98134.78;5051376;28;20307;-58
2023/08/16 00:54:20;;;;;;;11.90;10.43;;;;;;;23.42;100.00;98158.44;5051421;28;20258;-58
2023/08/16 00:56:45;;;;;;;11.55;9.88;;;;;;;23.31;100.00;98153.66;5051387;28;20185;-59
2023/08/16 00:59:12;;;;;;;14.45;9.82;;;;;;;23.26;100.00;98158.69;5051240;28;20275;-58
2023/08/16 01:01:38;;;;;;;13.07;9.50;;;;;;;23.07;100.00;98156.66;5051006;28;20649;-58
2023/08/16 01:04:04;;;;;;;11.43;10.02;;;;;;;22.95;100.00;98161.63;5051184;28;20182;-59
2023/08/16 01:06:30;;;;;;;13.40;9.63;;;;;;;22.93;100.00;98137.25;5051180;28;20205;-58
2023/08/16 01:08:55;;;;;;;12.00;10.75;;;;;;;22.86;100.00;98127.63;5050984;28;20211;-58
2023/08/16 01:11:31;;;;;;;12.85;10.32;;;;;;;22.91;100.00;98156.91;5011150;28;20221;-58
2023/08/16 01:14:13;;;;;;;12.02;9.65;;;;;;;22.90;100.00;98152.66;4995328;28;20186;-58
2023/08/16 01:16:39;;;;;;;12.32;10.88;;;;;;;22.93;100.00;98161.00;4991719;28;20195;-58
2023/08/16 01:19:13;;;;;;;10.75;9.70;;;;;;;22.85;100.00;98144.47;4991466;28;20187;-58
2023/08/16 01:21:46;;;;;;;11.50;10.35;;;;;;;22.94;100.00;98169.72;4991618;28;20195;-58
2023/08/16 01:24:26;;;;;;;12.45;10.15;;;;;;;22.73;100.00;98127.50;4952608;28;20188;-58
2023/08/16 01:26:53;;;;;;;16.92;10.90;;;;;;;22.96;100.00;98157.16;4952795;28;20196;-58
2023/08/16 01:29:19;;;;;;;11.68;10.48;;;;;;;22.96;100.00;98157.97;4952917;28;20287;-58
2023/08/16 01:31:45;;;;;;;12.77;10.27;;;;;;;23.01;100.00;98165.34;4955349;28;20337;-58
2023/08/16 01:34:11;;;;;;;13.85;10.73;;;;;;;23.05;100.00;98167.41;4971921;28;20188;-58
2023/08/16 01:36:36;;;;;;;12.68;11.45;;;;;;;22.92;100.00;98140.06;4971966;28;20733;-58
2023/08/16 01:39:02;;;;;;;11.77;10.68;;;;;;;22.86;100.00;98146.09;4971874;28;20191;-58
2023/08/16 01:41:44;;;;;;;11.70;10.50;;;;;;;23.04;100.00;98175.50;4971942;28;20645;-58
2023/08/16 01:44:11;;;;;;;12.18;10.85;;;;;;;23.01;100.00;98160.06;4971769;28;20645;-58
2023/08/16 01:46:38;;;;;;;11.57;10.48;;;;;;;22.84;100.00;98137.56;4971739;28;20327;-58
2023/08/16 01:49:04;;;;;;;15.52;10.93;;;;;;;22.93;100.00;98157.53;4995501;28;20284;-58
2023/08/16 01:51:29;;;;;;;14.98;11.40;;;;;;;22.80;100.00;98137.13;5010919;28;20305;-58
2023/08/16 01:53:55;;;;;;;13.00;9.82;;;;;;;22.87;100.00;98142.47;5010910;28;20562;-58
2023/08/16 01:56:21;;;;;;;11.98;10.75;;;;;;;22.85;100.00;98136.56;5032104;28;20205;-58
2023/08/16 01:58:47;;;;;;;10.85;9.75;;;;;;;23.03;100.00;98158.88;5032805;28;20267;-58
2023/08/16 02:01:14;;;;;;;12.02;10.73;;;;;;;23.10;100.00;98161.56;5032805;28;20661;-58
2023/08/16 02:03:39;;;;;;;13.10;10.77;;;;;;;23.06;100.00;98142.66;5032702;28;20173;-58
2023/08/16 02:06:05;;;;;;;11.07;9.98;;;;;;;23.14;100.00;98165.47;5032986;28;20188;-58
2023/08/16 02:08:30;;;;;;;10.65;9.60;;;;;;;23.00;100.00;98139.94;5032677;28;20194;-58
2023/08/16 02:10:55;;;;;;;11.68;10.57;;;;;;;22.99;100.00;98127.75;5032594;28;20181;-58
2023/08/16 02:13:21;;;;;;;14.13;10.75;;;;;;;22.98;100.00;98149.88;5032543;28;20212;-58
2023/08/16 02:15:46;;;;;;;11.57;10.50;;;;;;;22.96;100.00;98141.34;5032402;28;20174;-58
2023/08/16 02:18:13;;;;;;;12.88;10.68;;;;;;;23.06;100.00;98160.28;5032482;28;20252;-58
2023/08/16 02:20:39;;;;;;;11.57;9.88;;;;;;;22.97;100.00;98142.97;5032402;28;20188;-58
2023/08/16 02:23:05;;;;;;;12.38;10.18;;;;;;;22.86;100.00;98130.28;5032072;28;20624;-58
2023/08/16 02:25:31;;;;;;;10.25;9.20;;;;;;;22.94;100.00;98133.59;5032318;28;20178;-58
2023/08/16 02:27:56;;;;;;;14.27;9.27;;;;;;;23.15;100.00;98156.53;5032204;28;20245;-58
2023/08/16 02:30:22;;;;;;;13.13;10.15;;;;;;;23.07;100.00;98125.78;5032220;28;20597;-58
2023/08/16 02:32:47;;;;;;;11.00;9.32;;;;;;;23.19;100.00;98144.63;5032129;28;20201;-58
2023/08/16 02:35:13;;;;;;;9.82;8.90;;;;;;;23.28;100.00;98152.22;5031795;28;20235;-59
2023/08/16 02:37:38;;;;;;;13.77;10.38;;;;;;;23.18;100.00;98148.25;5031958;28;20169;-58
2023/08/16 02:40:04;;;;;;;11.00;9.23;;;;;;;23.15;100.00;98140.69;5032049;28;20189;-58
2023/08/16 02:42:30;;;;;;;9.38;8.50;;;;;;;23.24;100.00;98147.50;5031629;28;20208;-58
2023/08/16 02:44:55;;;;;;;9.98;8.65;;;;;;;23.29;100.00;98160.94;5031621;28;20184;-58
2023/08/16 02:47:20;;;;;;;11.15;10.05;;;;;;;23.30;100.00;98149.38;5032144;28;20535;-58
2023/08/16 02:49:46;;;;;;;13.57;9.63;;;;;;;23.28;100.00;98151.38;5031553;28;20213;-58
2023/08/16 02:52:12;;;;;;;14.25;9.35;;;;;;;23.26;100.00;98161.34;5031208;28;20628;-58
2023/08/16 02:54:38;;;;;;;11.80;9.40;;;;;;;23.09;100.00;98130.88;5031709;28;20617;-58
2023/08/16 02:57:03;;;;;;;13.85;10.02;;;;;;;23.15;100.00;98135.41;5031750;28;20180;-58
2023/08/16 02:59:46;;;;;;;14.23;9.45;;;;;;;23.38;100.00;98167.72;5031725;28;20260;-58
2023/08/16 03:02:12;;;;;;;9.93;8.95;;;;;;;23.21;100.00;98145.25;5031666;28;20691;-58
2023/08/16 03:04:39;;;;;;;13.20;9.57;;;;;;;23.23;100.00;98153.78;5031606;28;20657;-58
2023/08/16 03:07:06;;;;;;;11.77;9.43;;;;;;;23.31;100.00;98161.59;5031449;28;20660;-58
2023/08/16 03:09:31;;;;;;;10.45;9.40;;;;;;;23.12;100.00;98147.16;5031385;28;20188;-58
2023/08/16 03:11:57;;;;;;;15.13;10.20;;;;;;;23.16;100.00;98156.34;5031400;28;20510;-58
2023/08/16 03:14:22;;;;;;;11.75;10.35;;;;;;;23.23;100.00;98169.63;5031341;28;20264;-58
2023/08/16 03:16:48;;;;;;;15.27;10.93;;;;;;;23.01;100.00;98131.03;5031644;28;20170;-59
2023/08/16 03:19:14;;;;;;;12.30;10.63;;;;;;;23.05;100.00;98140.19;5031299;28;20185;-58
2023/08/16 03:21:40;;;;;;;11.82;10.57;;;;;;;23.16;100.00;98152.88;5031188;28;20573;-58
2023/08/16 03:24:05;;;;;;;14.10;11.20;;;;;;;23.11;100.00;98129.69;5031479;28;20174;-58
2023/08/16 03:26:31;;;;;;;12.43;11.18;;;;;;;23.09;100.00;98136.16;5031134;28;20181;-58
2023/08/16 03:28:56;;;;;;;13.20;10.65;;;;;;;23.14;100.00;98137.22;5031210;28;20647;-58
2023/08/16 03:31:22;;;;;;;11.60;10.50;;;;;;;23.25;100.00;98146.50;5031060;28;20173;-58
2023/08/16 03:33:48;;;;;;;13.65;10.68;;;;;;;23.17;100.00;98134.25;5030967;28;20178;-58
2023/08/16 03:36:13;;;;;;;12.52;11.27;;;;;;;23.18;100.00;98135.03;5031056;28;20184;-58
2023/08/16 03:38:41;;;;;;;11.77;10.10;;;;;;;23.34;100.00;98154.09;5031030;28;20553;-58
2023/08/16 03:41:07;;;;;;;17.33;11.75;;;;;;;23.04;100.00;98113.00;5031027;28;20524;-58
2023/08/16 03:43:36;;;;;;;12.73;10.82;;;;;;;23.28;100.00;98146.94;5030992;28;20225;-58
2023/08/16 03:46:02;;;;;;;13.73;10.38;;;;;;;23.29;100.00;98151.19;5031037;28;20166;-59
2023/08/16 03:48:28;;;;;;;14.93;10.75;;;;;;;23.28;100.00;98152.22;5048115;28;20185;-57
2023/08/16 03:50:54;;;;;;;12.93;10.35;;;;;;;23.30;100.00;98157.31;5048284;28;20514;-57
2023/08/16 03:53:19;;;;;;;16.63;12.07;;;;;;;23.31;100.00;98156.31;5048141;28;20217;-57
2023/08/16 03:55:44;;;;;;;14.77;11.73;;;;;;;23.33;100.00;98146.34;5048279;28;20196;-58
2023/08/16 03:58:10;;;;;;;16.80;11.38;;;;;;;23.15;100.00;98130.13;5048195;28;20264;-58
2023/08/16 04:00:35;;;;;;;15.75;10.88;;;;;;;23.26;100.00;98150.78;5048446;28;20238;-58
2023/08/16 04:03:03;;;;;;;13.90;10.88;;;;;;;23.31;100.00;98167.66;5049175;28;20199;-57
2023/08/16 04:05:29;;;;;;;13.45;11.02;;;;;;;23.15;100.00;98130.97;5052383;28;20268;-58
2023/08/16 04:07:54;;;;;;;12.95;11.68;;;;;;;23.13;100.00;98135.59;5052073;28;20229;-58
2023/08/16 04:10:20;;;;;;;13.32;11.38;;;;;;;23.23;100.00;98151.13;5052428;28;20289;-58
2023/08/16 04:12:45;;;;;;;12.43;10.95;;;;;;;23.19;100.00;98152.53;5052157;28;20268;-58
2023/08/16 04:15:11;;;;;;;14.75;11.25;;;;;;;23.28;100.00;98159.31;5052179;28;20671;-59
2023/08/16 04:17:36;;;;;;;11.93;10.82;;;;;;;23.16;100.00;98152.88;5052223;28;20177;-58
2023/08/16 04:20:05;;;;;;;16.15;11.52;;;;;;;23.22;100.00;98150.34;5038849;28;20216;-58
2023/08/16 04:22:31;;;;;;;12.05;10.85;;;;;;;23.40;100.00;98170.97;5034606;28;20186;-58
2023/08/16 04:24:56;;;;;;;12.05;10.82;;;;;;;23.32;100.00;98157.94;5034540;28;20264;-58
2023/08/16 04:27:22;;;;;;;17.83;11.25;;;;;;;23.16;100.00;98147.59;5034478;28;20631;-58
2023/08/16 04:29:47;;;;;;;12.65;10.38;;;;;;;23.20;100.00;98148.88;5031755;28;20181;-58
2023/08/16 04:32:12;;;;;;;15.10;11.82;;;;;;;23.22;100.00;98165.34;5031902;28;20217;-58
2023/08/16 04:34:38;;;;;;;11.73;10.52;;;;;;;23.36;100.00;98180.31;5031895;28;20277;-58
2023/08/16 04:37:04;;;;;;;13.70;11.00;;;;;;;23.16;100.00;98147.59;5031960;28;20212;-58
2023/08/16 04:39:29;;;;;;;11.75;10.55;;;;;;;23.46;100.00;98180.78;5031736;28;20687;-58
2023/08/16 04:41:55;;;;;;;12.38;11.00;;;;;;;23.55;100.00;98174.38;5031774;28;20185;-58
2023/08/16 04:44:20;;;;;;;13.13;11.32;;;;;;;23.57;100.00;98193.47;5031714;28;20189;-58
2023/08/16 04:46:47;;;;;;;13.60;12.23;;;;;;;23.37;100.00;98171.38;5031642;28;20192;-58
2023/08/16 04:49:12;;;;;;;14.05;11.13;;;;;;;23.41;100.00;98189.28;5031526;28;20264;-58
2023/08/16 04:51:38;;;;;;;13.73;11.57;;;;;;;23.19;100.00;98152.53;5031490;28;20719;-58
2023/08/16 04:54:03;;;;;;;14.45;11.93;;;;;;;23.37;100.00;98181.94;5031657;28;20269;-57
2023/08/16 04:56:29;;;;;;;16.80;11.00;;;;;;;23.32;100.00;98176.41;5031714;28;20541;-57
2023/08/16 04:58:54;;;;;;;13.65;10.80;;;;;;;23.40;100.00;98179.75;5031388;28;20182;-57
2023/08/16 05:01:22;;;;;;;12.02;10.82;;;;;;;23.20;100.00;98141.78;5032954;28;20507;-57
2023/08/16 05:03:52;;;;;;;13.32;11.40;;;;;;;23.28;100.00;98167.22;5033849;28;20211;-58
2023/08/16 05:06:18;;;;;;;13.95;12.57;;;;;;;23.32;100.00;98173.78;5033772;28;20181;-57
2023/08/16 05:08:43;;;;;;;13.50;12.07;;;;;;;23.29;100.00;98174.13;5033837;28;20194;-58
2023/08/16 05:11:09;;;;;;;11.90;10.75;;;;;;;23.38;100.00;98186.22;5033684;28;20170;-58
2023/08/16 05:13:34;;;;;;;12.88;11.65;;;;;;;23.26;100.00;98153.41;5032790;28;20206;-58
2023/08/16 05:15:59;;;;;;;12.82;11.52;;;;;;;23.42;100.00;98188.28;5033561;28;20244;-59
2023/08/16 05:18:25;;;;;;;14.50;11.73;;;;;;;23.44;100.00;98188.91;5033830;28;20224;-58
2023/08/16 05:20:50;;;;;;;13.18;11.73;;;;;;;23.40;100.00;98173.63;5034162;28;20173;-58
2023/08/16 05:23:16;;;;;;;13.32;12.13;;;;;;;23.44;100.00;98194.19;5034143;28;20186;-58
2023/08/16 05:25:41;;;;;;;12.80;11.48;;;;;;;23.50;100.00;98192.59;5033955;28;20195;-56
2023/08/16 05:28:07;;;;;;;12.43;11.15;;;;;;;23.16;100.00;98159.00;5033914;28;20636;-56
2023/08/16 05:30:33;;;;;;;13.55;11.50;;;;;;;23.27;100.00;98178.81;5033704;28;20178;-56
2023/08/16 05:32:58;;;;;;;13.13;11.77;;;;;;;23.16;100.00;98159.00;5033865;28;20208;-57
2023/08/16 05:35:24;;;;;;;15.77;11.90;;;;;;;23.28;100.00;98170.69;5034075;28;20182;-57
2023/08/16 05:37:54;;;;;;;12.95;11.45;;;;;;;23.39;100.00;98172.00;5033524;28;20630;-57
2023/08/16 05:40:20;;;;;;;11.90;10.75;;;;;;;23.37;100.00;98177.47;5033359;28;20598;-57
2023/08/16 05:42:45;;;;;;;12.93;11.30;;;;;;;23.44;100.00;98175.72;5033628;28;20242;-57
2023/08/16 05:45:10;;;;;;;15.40;10.73;;;;;;;23.47;100.00;98183.25;5033618;28;20550;-57
2023/08/16 05:47:36;;;;;;;12.32;11.02;;;;;;;23.51;100.00;98188.94;5033540;28;20170;-57
2023/08/16 05:50:02;;;;;;;11.90;10.80;;;;;;;23.50;100.00;98188.16;5030847;28;20763;-57
2023/08/16 05:52:28;;;;;;;11.82;10.63;;;;;;;23.45;100.00;98173.88;5030839;28;20253;-57
2023/08/16 05:54:53;;;;;;;12.38;11.15;;;;;;;23.45;100.00;98161.50;5031139;28;20673;-57
2023/08/16 05:57:19;;;;;;;12.52;11.15;;;;;;;23.73;100.00;98200.09;5031052;28;20614;-57
2023/08/16 05:59:44;;;;;;;13.43;11.32;;;;;;;23.63;100.00;98182.13;5031064;28;20189;-57
2023/08/16 06:02:10;;;;;;;12.70;10.50;;;;;;;23.56;100.00;98160.16;5030951;28;20189;-57
2023/08/16 06:04:36;;;;;;;17.10;11.40;;;;;;;23.68;100.00;98184.00;5030778;28;20563;-58
2023/08/16 06:07:03;;;;;;;18.80;11.77;;;;;;;23.77;100.00;98190.78;5030380;28;20205;-57
2023/08/16 06:09:29;;;;;;;22.98;12.10;;;;;;;23.66;100.00;98171.19;5030792;28;20252;-58
2023/08/16 06:11:55;;;;;;;18.10;11.70;;;;;;;23.77;100.00;98190.78;5030621;28;20242;-57
2023/08/16 06:14:20;;;;;;;19.95;13.02;;;;;;;23.74;100.00;98163.94;5030708;28;20217;-57
2023/08/16 06:16:45;;;;;;;15.50;10.85;;;;;;;24.03;100.00;98206.84;5030518;28;20200;-57
2023/08/16 06:19:13;;;;;;;13.60;11.05;;;;;;;24.08;100.00;98202.81;4991126;28;20233;-57
2023/08/16 06:21:39;;;;;;;12.80;11.35;;;;;;;24.02;100.00;98184.06;4991070;28;20207;-57
2023/08/16 06:24:05;;;;;;;20.15;12.00;;;;;;;24.17;100.00;98202.44;4991147;28;20618;-57
2023/08/16 06:26:30;;;;;;;15.02;11.30;;;;;;;23.97;100.00;98172.47;4990181;28;20574;-57
2023/08/16 06:28:55;;;;;;;19.65;11.43;;;;;;;24.02;100.00;98170.03;4991069;28;20191;-57
2023/08/16 06:31:21;;;;;;;23.35;13.35;;;;;;;24.27;100.00;98201.06;4991026;28;20175;-58
2023/08/16 06:33:46;;;;;;;22.60;13.15;;;;;;;24.44;100.00;98215.59;4990950;28;20724;-57
2023/08/16 06:36:12;;;;;;;23.48;13.23;;;;;;;24.27;100.00;98166.69;4990876;28;20186;-58
2023/08/16 06:38:38;;;;;;;21.88;14.00;;;;;;;24.47;100.00;98187.94;5005774;28;20194;-57
2023/08/16 06:41:04;;;;;;;26.45;13.32;;;;;;;24.74;100.00;98201.09;5010442;28;20186;-57
2023/08/16 06:43:29;;;;;;;25.95;13.13;;;;;;;24.66;100.00;98174.03;5010382;28;20183;-58
2023/08/16 06:45:56;;;;;;;22.02;13.15;;;;;;;24.92;100.00;98205.84;5010365;28;20189;-57
2023/08/16 06:48:22;;;;;;;25.85;12.10;;;;;;;24.82;100.00;98187.69;5010363;28;20193;-57
2023/08/16 06:50:47;;;;;;;16.95;11.68;;;;;;;25.06;100.00;98210.97;5026904;28;20185;-57
2023/08/16 06:53:13;;;;;;;21.83;13.15;;;;;;;25.00;100.00;98187.94;5032448;28;20275;-57
2023/08/16 06:55:38;;;;;;;22.27;11.82;;;;;;;25.19;100.00;98210.19;5032391;28;20198;-58
2023/08/16 06:58:06;;;;;;;21.52;11.77;;;;;;;25.19;100.00;98187.16;5032336;28;20204;-57
2023/08/16 07:00:33;;;;;;;17.23;12.13;;;;;;;25.32;100.00;98187.19;5032294;28;20169;-57
2023/08/16 07:03:00;;;;;;;18.70;12.50;;;;;;;25.51;100.00;98199.63;5032248;28;20189;-57
2023/08/16 07:05:26;;;;;;;21.05;11.32;;;;;;;25.53;100.00;98186.16;5032243;28;20247;-58
2023/08/16 07:07:52;;;;;;;17.08;10.75;;;;;;;25.58;98.36;98181.06;5032151;28;20229;-58
2023/08/16 07:10:18;;;;;;;16.67;11.77;;;;;;;25.71;98.17;98192.47;5032462;28;20206;-57
2023/08/16 07:12:44;;;;;;;19.58;12.48;;;;;;;25.74;96.65;98178.84;5032068;28;20252;-58
2023/08/16 07:15:11;;;;;;;19.55;11.70;;;;;;;25.84;95.81;98171.25;5032095;28;20221;-58
2023/08/16 07:17:37;;;;;;;18.92;11.63;;;;;;;25.94;95.02;98174.34;5032071;28;20664;-58
2023/08/16 07:20:07;;;;;;;19.90;12.35;;;;;;;26.22;94.23;98200.56;5032346;28;20174;-58
2023/08/16 07:22:32;;;;;;;17.63;11.38;;;;;;;26.30;91.01;98200.38;5031964;28;20631;-58
2023/08/16 07:24:58;;;;;;;20.40;11.77;;;;;;;26.20;90.55;98174.28;5031945;28;20257;-57
2023/08/16 07:27:24;;;;;;;16.20;11.00;;;;;;;26.36;89.90;98191.56;5031890;28;20181;-58
2023/08/16 07:29:49;;;;;;;16.75;10.95;;;;;;;26.50;90.31;98201.09;5031810;28;20169;-58
2023/08/16 07:32:15;;;;;;;14.35;10.52;;;;;;;26.38;89.09;98177.06;5031656;28;20300;-58
2023/08/16 07:34:42;;;;;;;17.73;10.93;;;;;;;26.56;89.65;98195.81;5031818;28;20166;-58
2023/08/16 07:37:08;;;;;;;19.38;10.13;;;;;;;26.55;88.88;98183.56;5031695;28;20189;-57
2023/08/16 07:39:33;;;;;;;14.73;10.15;;;;;;;26.78;87.80;98209.59;5031625;28;20178;-58
2023/08/16 07:41:59;;;;;;;19.27;10.73;;;;;;;26.76;86.16;98185.09;5031558;28;20181;-58
2023/08/16 07:44:24;;;;;;;19.35;10.25;;;;;;;26.89;85.16;98196.44;5031257;28;20209;-58
2023/08/16 07:46:50;;;;;;;19.85;9.98;;;;;;;27.09;82.97;98213.09;5031495;28;20228;-58
2023/08/16 07:49:15;;;;;;;13.77;9.52;;;;;;;27.02;82.90;98204.34;5031571;28;20173;-58
2023/08/16 07:51:40;;;;;;;13.52;8.80;;;;;;;27.10;79.56;98198.78;5028814;28;20236;-58
2023/08/16 07:54:06;;;;;;;14.20;9.68;;;;;;;27.10;79.47;98190.81;5028975;28;20631;-58
2023/08/16 07:56:31;;;;;;;17.48;9.88;;;;;;;27.13;79.93;98192.22;5029001;28;20212;-57
2023/08/16 07:58:57;;;;;;;19.70;10.23;;;;;;;27.17;77.91;98220.81;5029045;28;20583;-57
2023/08/16 08:01:23;;;;;;;20.67;10.80;;;;;;;26.99;79.71;98218.03;5028977;28;20258;-57
2023/08/16 08:03:49;;;;;;;16.30;10.27;;;;;;;26.90;79.69;98182.16;5028819;28;20174;-58
2023/08/16 08:06:14;;;;;;;18.10;10.88;;;;;;;27.09;79.95;98206.94;5028853;28;20196;-57
2023/08/16 08:08:40;;;;;;;20.90;11.02;;;;;;;27.06;80.04;98210.06;5028560;28;20229;-58
2023/08/16 08:11:07;;;;;;;20.85;11.55;;;;;;;26.99;81.12;98190.69;5028785;28;20604;-58
2023/08/16 08:13:32;;;;;;;16.77;10.38;;;;;;;27.22;83.45;98217.56;5028778;28;20220;-57
2023/08/16 08:16:00;;;;;;;16.65;10.73;;;;;;;27.27;81.62;98215.03;5028928;28;20173;-57
2023/08/16 08:18:25;;;;;;;15.30;9.40;;;;;;;27.29;80.14;98213.78;5028687;28;20694;-57
2023/08/16 08:20:50;;;;;;;15.57;9.75;;;;;;;27.45;79.02;98218.59;5028409;28;20182;-57
2023/08/16 08:23:16;;;;;;;15.90;8.85;;;;;;;27.46;79.24;98225.53;5030170;28;20284;-57
2023/08/16 08:25:44;;;;;;;18.15;9.75;;;;;;;27.23;78.53;98193.41;5030785;28;20170;-57
2023/08/16 08:28:10;;;;;;;18.20;9.70;;;;;;;27.43;78.12;98217.19;5031066;28;20240;-57
2023/08/16 08:30:35;;;;;;;18.40;10.10;;;;;;;27.33;76.69;98216.84;5031105;28;20178;-57
2023/08/16 08:33:01;;;;;;;13.32;9.68;;;;;;;27.34;77.81;98192.72;5031112;28;20679;-57
2023/08/16 08:35:26;;;;;;;22.40;9.75;;;;;;;27.51;78.38;98209.75;5030994;28;20185;-57
2023/08/16 08:37:52;;;;;;;14.32;8.85;;;;;;;27.68;75.33;98218.00;5030977;28;20718;-56
2023/08/16 08:40:18;;;;;;;17.38;9.10;;;;;;;27.48;74.20;98183.63;5031058;28;20185;-57
2023/08/16 08:42:49;;;;;;;11.75;8.02;;;;;;;27.62;71.90;98211.72;5031101;28;20213;-57
2023/08/16 08:45:15;;;;;;;9.77;8.73;;;;;;;27.65;72.62;98224.56;5031058;28;20213;-57
2023/08/16 08:47:43;;;;;;;17.05;8.85;;;;;;;27.58;71.92;98207.84;5030990;28;20236;-57
2023/08/16 08:50:09;;;;;;;12.52;8.45;;;;;;;27.67;71.71;98205.72;5033926;28;20178;-57
2023/08/16 08:52:34;;;;;;;18.83;9.82;;;;;;;27.82;72.57;98225.66;5034593;28;20197;-57
2023/08/16 08:55:00;;;;;;;14.13;8.20;;;;;;;27.76;70.11;98215.88;5034959;28;20177;-57
2023/08/16 08:57:30;;;;;;;11.70;7.60;;;;;;;27.76;70.92;98199.91;5051965;28;20284;-58
2023/08/16 08:59:58;;;;;;;25.27;8.25;;;;;;;28.00;68.77;98220.41;5052091;28;20185;-57
2023/08/16 09:02:24;;;;;;;14.23;7.65;;;;;;;28.01;68.85;98214.06;5051950;28;20740;-57
2023/08/16 09:04:51;;;;;;;10.65;7.28;;;;;;;28.06;70.23;98219.53;5051938;28;20263;-57
2023/08/16 09:07:18;;;;;;;10.07;7.40;;;;;;;27.99;67.54;98217.97;5051771;28;20666;-56
2023/08/16 09:09:48;;;;;;;14.20;7.95;;;;;;;27.95;68.46;98195.47;5051963;28;20169;-57
2023/08/16 09:12:14;;;;;;;14.90;7.05;;;;;;;28.04;66.10;98213.59;5051784;28;20213;-57
2023/08/16 09:14:40;;;;;;;11.63;7.45;;;;;;;27.87;68.02;98180.63;5051750;28;20192;-57
2023/08/16 09:17:06;;;;;;;9.07;7.13;;;;;;;27.71;66.27;98177.69;5051771;28;20185;-57
2023/08/16 09:19:31;;;;;;;10.45;7.85;;;;;;;27.94;68.01;98213.28;5051808;28;20598;-57
2023/08/16 09:21:57;;;;;;;8.57;7.60;;;;;;;27.97;67.61;98207.53;5051684;28;20185;-58
2023/08/16 09:24:26;;;;;;;11.20;7.47;;;;;;;27.79;67.45;98207.50;5051958;28;20185;-58
2023/08/16 09:26:52;;;;;;;7.60;6.90;;;;;;;27.69;67.48;98185.88;5051624;28;20599;-58
2023/08/16 09:29:18;;;;;;;12.38;6.93;;;;;;;27.81;68.65;98186.81;5036041;28;20720;-60
2023/08/16 09:31:46;;;;;;;9.05;6.53;;;;;;;27.76;67.25;98191.94;5033980;28;20296;-58
2023/08/16 09:34:14;;;;;;;14.55;7.32;;;;;;;27.90;68.87;98222.75;5033948;28;20178;-58
2023/08/16 09:36:45;;;;;;;11.65;7.18;;;;;;;27.87;69.13;98196.56;5031394;28;20190;-59
2023/08/16 09:39:10;;;;;;;13.77;7.20;;;;;;;27.99;68.45;98215.31;5031428;28;20830;-58
2023/08/16 09:41:44;;;;;;;12.95;7.50;;;;;;;27.86;67.37;98184.31;5031343;28;20273;-58
2023/08/16 09:44:10;;;;;;;8.50;6.95;;;;;;;28.11;67.91;98218.88;5031481;28;20186;-59
2023/08/16 09:46:35;;;;;;;15.40;7.65;;;;;;;28.00;66.18;98219.59;5031227;28;20296;-59
2023/08/16 09:49:06;;;;;;;9.65;6.82;;;;;;;27.87;68.22;98201.09;5031298;28;20169;-58
2023/08/16 09:51:36;;;;;;;11.63;7.05;;;;;;;28.04;68.07;98223.44;5031199;28;20273;-58
2023/08/16 09:54:07;;;;;;;11.55;7.68;;;;;;;28.04;68.47;98213.59;5031267;28;20189;-58
2023/08/16 09:56:34;;;;;;;10.02;7.97;;;;;;;28.00;67.88;98188.47;5031416;28;20611;-57
2023/08/16 09:59:02;;;;;;;9.85;7.25;;;;;;;28.20;64.01;98190.91;5031068;28;20260;-58
2023/08/16 10:01:30;;;;;;;10.35;7.55;;;;;;;28.40;64.82;98221.63;5029736;28;20189;-58
2023/08/16 10:03:56;;;;;;;14.05;7.15;;;;;;;28.43;63.47;98231.84;5030770;28;20181;-58
2023/08/16 10:06:25;;;;;;;10.32;7.25;;;;;;;28.08;62.94;98209.47;5030729;28;20184;-58
2023/08/16 10:08:52;;;;;;;19.20;7.47;;;;;;;28.09;64.50;98227.06;5033350;28;20222;-58
2023/08/16 10:11:18;;;;;;;11.50;7.07;;;;;;;28.25;63.68;98229.16;5033272;28;20224;-58
2023/08/16 10:13:44;;;;;;;11.90;7.57;;;;;;;28.18;61.98;98193.81;5033167;28;20284;-58
2023/08/16 10:16:21;;;;;;;7.95;7.15;;;;;;;28.38;61.48;98213.06;5033120;28;20272;-57
2023/08/16 10:18:47;;;;;;;10.57;8.30;;;;;;;28.50;62.03;98197.97;5033383;28;20264;-57
2023/08/16 10:21:17;;;;;;;10.35;7.55;;;;;;;28.77;61.62;98212.59;5033291;28;20264;-57
2023/08/16 10:23:44;;;;;;;16.38;7.95;;;;;;;28.99;60.74;98205.78;5032945;28;20177;-57
2023/08/16 10:26:14;;;;;;;8.82;7.78;;;;;;;29.00;60.32;98198.56;5032478;28;20174;-57
2023/08/16 10:28:44;;;;;;;10.13;7.55;;;;;;;28.96;60.64;98226.69;5032385;28;20535;-57
2023/08/16 10:31:12;;;;;;;11.18;7.47;;;;;;;28.97;61.24;98229.16;5032870;28;20201;-58
2023/08/16 10:33:44;;;;;;;8.38;7.53;;;;;;;28.90;61.00;98220.41;5032551;28;20198;-57
2023/08/16 10:36:10;;;;;;;11.30;8.05;;;;;;;28.80;61.84;98222.78;5032575;28;20182;-57
2023/08/16 10:38:36;;;;;;;13.35;7.53;;;;;;;28.58;61.49;98192.31;5032588;28;20174;-58
2023/08/16 10:41:02;;;;;;;9.43;7.85;;;;;;;28.50;62.41;98186.53;5032418;28;20668;-57
2023/08/16 10:43:34;;;;;;;10.43;7.47;;;;;;;28.58;61.52;98181.69;5032523;28;20205;-57
2023/08/16 10:46:00;;;;;;;15.88;8.60;;;;;;;28.93;62.30;98209.28;5032513;28;20260;-57
2023/08/16 10:48:34;;;;;;;9.30;7.93;;;;;;;29.25;61.08;98191.22;5032111;28;20201;-57
2023/08/16 10:51:03;;;;;;;10.13;8.00;;;;;;;29.67;60.57;98207.00;5032395;28;20181;-57
2023/08/16 10:53:29;;;;;;;14.98;7.88;;;;;;;29.78;59.40;98197.38;5032117;28;20207;-57
2023/08/16 10:55:55;;;;;;;8.75;7.53;;;;;;;29.90;58.78;98201.66;5031962;28;20337;-57
2023/08/16 10:58:25;;;;;;;9.60;7.80;;;;;;;29.76;58.15;98175.44;5032140;28;20170;-57
2023/08/16 11:01:09;;;;;;;11.80;7.43;;;;;;;29.56;57.54;98172.31;5032118;28;20273;-57
2023/08/16 11:03:35;;;;;;;11.02;7.70;;;;;;;29.51;58.41;98170.28;5032095;28;20618;-57
2023/08/16 11:06:08;;;;;;;11.25;7.65;;;;;;;29.52;58.66;98198.59;5031929;28;20181;-57
2023/08/16 11:08:34;;;;;;;15.35;8.20;;;;;;;29.47;60.28;98185.16;5032051;28;20267;-57
2023/08/16 11:11:03;;;;;;;13.10;7.57;;;;;;;29.60;60.00;98192.13;5031920;28;20186;-57
2023/08/16 11:13:29;;;;;;;8.93;7.53;;;;;;;29.46;59.42;98161.38;5031510;28;20205;-58